sensor_id;sensor_type;location;lat;lon;timestamp;pressure;altitude;pressure_sealevel;temperature;humidity
11413;BME280;5762;43.256;26.960;2023-03-24T00:00:15;99891.55;;;5.78;100.00
11413;BME280;5762;43.256;26.960;2023-03-24T00:02:44;99891.53;;;5.76;100.00
11413;BME280;5762;43.256;26.960;2023-03-24T00:05:17;99897.95;;;5.69;100.00
11413;BME280;5762;43.256;26.960;2023-03-24T00:07:45;99896.08;;;5.72;100.00
11413;BME280;5762;43.256;26.960;2023-03-24T00:10:16;99893.22;;;5.92;100.00
11413;BME280;5762;43.256;26.960;2023-03-24T00:12:45;99902.09;;;5.95;100.00
11413;BME280;5762;43.256;26.960;2023-03-24T00:15:17;99893.75;;;5.91;100.00
11413;BME280;5762;43.256;26.960;2023-03-24T00:17:44;99899.63;;;5.83;100.00
11413;BME280;5762;43.256;26.960;2023-03-24T00:20:14;99895.73;;;5.59;100.00
11413;BME280;5762;43.256;26.960;2023-03-24T00:22:44;99900.09;;;5.70;100.00
11413;BME280;5762;43.256;26.960;2023-03-24T00:25:14;99898.16;;;5.53;100.00
11413;BME280;5762;43.256;26.960;2023-03-24T00:27:43;99889.19;;;5.34;100.00
11413;BME280;5762;43.256;26.960;2023-03-24T00:30:12;99892.47;;;5.44;100.00
11413;BME280;5762;43.256;26.960;2023-03-24T00:32:41;99893.78;;;5.39;100.00
11413;BME280;5762;43.256;26.960;2023-03-24T00:35:10;99888.92;;;5.36;100.00
11413;BME280;5762;43.256;26.960;2023-03-24T00:37:39;99893.27;;;5.45;100.00
11413;BME280;5762;43.256;26.960;2023-03-24T00:40:16;99898.16;;;5.08;100.00
11413;BME280;5762;43.256;26.960;2023-03-24T00:42:45;99898.56;;;4.92;100.00
11413;BME280;5762;43.256;26.960;2023-03-24T00:45:18;99904.13;;;4.81;100.00
11413;BME280;5762;43.256;26.960;2023-03-24T00:47:47;99906.12;;;4.98;100.00
11413;BME280;5762;43.256;26.960;2023-03-24T00:50:16;99903.27;;;5.10;100.00
11413;BME280;5762;43.256;26.960;2023-03-24T00:52:46;99903.58;;;5.21;100.00
11413;BME280;5762;43.256;26.960;2023-03-24T00:55:15;99904.82;;;5.03;100.00
11413;BME280;5762;43.256;26.960;2023-03-24T00:57:44;99910.30;;;5.23;100.00
11413;BME280;5762;43.256;26.960;2023-03-24T01:00:19;99906.01;;;5.22;100.00
11413;BME280;5762;43.256;26.960;2023-03-24T01:02:49;99907.89;;;5.19;100.00
11413;BME280;5762;43.256;26.960;2023-03-24T01:05:22;99914.52;;;5.09;100.00
11413;BME280;5762;43.256;26.960;2023-03-24T01:07:51;99904.56;;;5.04;100.00
11413;BME280;5762;43.256;26.960;2023-03-24T01:10:20;99898.94;;;5.06;100.00
11413;BME280;5762;43.256;26.960;2023-03-24T01:12:58;99903.52;;;5.08;100.00
11413;BME280;5762;43.256;26.960;2023-03-24T01:15:23;99901.86;;;5.02;100.00
11413;BME280;5762;43.256;26.960;2023-03-24T01:17:52;99891.03;;;4.89;100.00
11413;BME280;5762;43.256;26.960;2023-03-24T01:20:21;99897.20;;;4.90;100.00
11413;BME280;5762;43.256;26.960;2023-03-24T01:22:50;99887.05;;;4.94;100.00
11413;BME280;5762;43.256;26.960;2023-03-24T01:25:20;99892.17;;;4.98;100.00
11413;BME280;5762;43.256;26.960;2023-03-24T01:27:50;99897.05;;;5.04;100.00
11413;BME280;5762;43.256;26.960;2023-03-24T01:30:19;99894.98;;;5.14;100.00
11413;BME280;5762;43.256;26.960;2023-03-24T01:32:47;99899.31;;;5.20;100.00
11413;BME280;5762;43.256;26.960;2023-03-24T01:35:17;99894.48;;;5.24;100.00
11413;BME280;5762;43.256;26.960;2023-03-24T01:37:46;99895.30;;;5.25;100.00
11413;BME280;5762;43.256;26.960;2023-03-24T01:40:16;99892.30;;;5.14;100.00
11413;BME280;5762;43.256;26.960;2023-03-24T01:42:46;99889.00;;;5.04;100.00
11413;BME280;5762;43.256;26.960;2023-03-24T01:48:01;99891.52;;;5.18;100.00
11413;BME280;5762;43.256;26.960;2023-03-24T01:50:30;99888.02;;;5.15;100.00
11413;BME280;5762;43.256;26.960;2023-03-24T01:55:34;99894.92;;;5.06;100.00
11413;BME280;5762;43.256;26.960;2023-03-24T01:58:04;99888.80;;;5.13;100.00
11413;BME280;5762;43.256;26.960;2023-03-24T02:00:33;99897.42;;;5.18;100.00
11413;BME280;5762;43.256;26.960;2023-03-24T02:03:05;99905.73;;;5.21;100.00
11413;BME280;5762;43.256;26.960;2023-03-24T02:05:33;99904.70;;;5.27;100.00
11413;BME280;5762;43.256;26.960;2023-03-24T02:10:32;99907.01;;;5.09;100.00
11413;BME280;5762;43.256;26.960;2023-03-24T02:13:01;99917.63;;;4.96;100.00
11413;BME280;5762;43.256;26.960;2023-03-24T02:15:30;99915.25;;;4.99;100.00
11413;BME280;5762;43.256;26.960;2023-03-24T02:18:15;99916.45;;;5.16;100.00
11413;BME280;5762;43.256;26.960;2023-03-24T02:29:04;99927.84;;;5.36;100.00
11413;BME280;5762;43.256;26.960;2023-03-24T02:31:34;99921.12;;;5.36;100.00
11413;BME280;5762;43.256;26.960;2023-03-24T02:44:38;99941.02;;;5.40;100.00
11413;BME280;5762;43.256;26.960;2023-03-24T02:47:10;99952.58;;;5.43;100.00
11413;BME280;5762;43.256;26.960;2023-03-24T02:52:21;99958.78;;;5.46;100.00
11413;BME280;5762;43.256;26.960;2023-03-24T02:55:00;99953.08;;;5.37;100.00
11413;BME280;5762;43.256;26.960;2023-03-24T02:57:20;99947.08;;;5.25;100.00
11413;BME280;5762;43.256;26.960;2023-03-24T03:00:02;99953.79;;;5.25;100.00
11413;BME280;5762;43.256;26.960;2023-03-24T03:02:31;99946.50;;;5.16;100.00
11413;BME280;5762;43.256;26.960;2023-03-24T03:05:01;99931.81;;;5.28;100.00
11413;BME280;5762;43.256;26.960;2023-03-24T03:07:30;99907.38;;;5.27;100.00
11413;BME280;5762;43.256;26.960;2023-03-24T03:10:07;99889.48;;;4.96;100.00
11413;BME280;5762;43.256;26.960;2023-03-24T03:12:35;99892.77;;;5.05;100.00
11413;BME280;5762;43.256;26.960;2023-03-24T03:15:15;99899.25;;;5.12;100.00
11413;BME280;5762;43.256;26.960;2023-03-24T03:17:55;99900.99;;;4.94;100.00
11413;BME280;5762;43.256;26.960;2023-03-24T03:20:22;99904.23;;;4.96;100.00
11413;BME280;5762;43.256;26.960;2023-03-24T03:22:53;99901.94;;;4.75;100.00
11413;BME280;5762;43.256;26.960;2023-03-24T03:25:23;99906.30;;;4.54;100.00
11413;BME280;5762;43.256;26.960;2023-03-24T03:27:54;99897.13;;;4.45;100.00
11413;BME280;5762;43.256;26.960;2023-03-24T03:30:26;99899.17;;;4.09;100.00
11413;BME280;5762;43.256;26.960;2023-03-24T03:32:55;99899.17;;;4.09;100.00
11413;BME280;5762;43.256;26.960;2023-03-24T03:37:57;99898.43;;;3.91;100.00
11413;BME280;5762;43.256;26.960;2023-03-24T03:40:37;99895.44;;;3.88;100.00
11413;BME280;5762;43.256;26.960;2023-03-24T03:43:05;99899.61;;;3.76;100.00
11413;BME280;5762;43.256;26.960;2023-03-24T03:45:34;99894.16;;;3.49;100.00
11413;BME280;5762;43.256;26.960;2023-03-24T03:48:03;99893.39;;;3.51;100.00
11413;BME280;5762;43.256;26.960;2023-03-24T03:50:32;99893.03;;;3.43;100.00
11413;BME280;5762;43.256;26.960;2023-03-24T03:53:02;99888.31;;;3.30;100.00
11413;BME280;5762;43.256;26.960;2023-03-24T03:55:31;99887.95;;;3.24;100.00
11413;BME280;5762;43.256;26.960;2023-03-24T03:58:02;99885.31;;;3.27;100.00
11413;BME280;5762;43.256;26.960;2023-03-24T04:00:32;99884.44;;;3.02;100.00
11413;BME280;5762;43.256;26.960;2023-03-24T04:05:41;99890.42;;;3.09;100.00
11413;BME280;5762;43.256;26.960;2023-03-24T04:13:32;99892.89;;;2.77;100.00
11413;BME280;5762;43.256;26.960;2023-03-24T04:15:59;99900.88;;;2.94;100.00
11413;BME280;5762;43.256;26.960;2023-03-24T04:29:05;99924.13;;;3.10;100.00
11413;BME280;5762;43.256;26.960;2023-03-24T04:31:41;99928.39;;;3.09;100.00
11413;BME280;5762;43.256;26.960;2023-03-24T04:34:10;99930.81;;;3.10;100.00
11413;BME280;5762;43.256;26.960;2023-03-24T04:36:39;99945.20;;;3.07;100.00
11413;BME280;5762;43.256;26.960;2023-03-24T04:39:12;99956.82;;;2.98;100.00
11413;BME280;5762;43.256;26.960;2023-03-24T04:41:40;99948.60;;;3.02;100.00
11413;BME280;5762;43.256;26.960;2023-03-24T04:44:10;99954.91;;;2.96;100.00
11413;BME280;5762;43.256;26.960;2023-03-24T04:46:39;99966.75;;;3.00;100.00
11413;BME280;5762;43.256;26.960;2023-03-24T04:49:07;99968.73;;;3.07;100.00
11413;BME280;5762;43.256;26.960;2023-03-24T04:51:36;99987.08;;;3.01;100.00
11413;BME280;5762;43.256;26.960;2023-03-24T04:54:06;99981.82;;;3.06;100.00
11413;BME280;5762;43.256;26.960;2023-03-24T04:56:55;99990.31;;;3.20;100.00
11413;BME280;5762;43.256;26.960;2023-03-24T04:59:19;99998.61;;;3.21;100.00
11413;BME280;5762;43.256;26.960;2023-03-24T05:01:48;100004.69;;;3.16;100.00
11413;BME280;5762;43.256;26.960;2023-03-24T05:04:18;100021.88;;;3.20;100.00
11413;BME280;5762;43.256;26.960;2023-03-24T05:06:47;100029.19;;;3.42;100.00
11413;BME280;5762;43.256;26.960;2023-03-24T05:09:18;100029.08;;;3.53;100.00
11413;BME280;5762;43.256;26.960;2023-03-24T05:11:47;100032.03;;;3.54;100.00
11413;BME280;5762;43.256;26.960;2023-03-24T05:14:16;100035.80;;;3.56;100.00
11413;BME280;5762;43.256;26.960;2023-03-24T05:16:44;100032.80;;;3.52;100.00
11413;BME280;5762;43.256;26.960;2023-03-24T05:19:13;100040.75;;;3.64;100.00
11413;BME280;5762;43.256;26.960;2023-03-24T05:21:41;100039.93;;;3.80;100.00
11413;BME280;5762;43.256;26.960;2023-03-24T05:24:10;100041.88;;;3.87;100.00
11413;BME280;5762;43.256;26.960;2023-03-24T05:26:39;100042.94;;;3.86;100.00
